Fairchem Filly — 3EJM9 — position and weather

sailwx.info

Track history (hours):
 
Tides and Currents Weather Stations Pressure Air Temp Water Temp Dewpoint Dewpoint Depression Visibility Wind Speed Wind Dir Waves Ship Positions

Fairchem Filly

Last reported at 2014-Oct-29 20:17 UTC. Time now 2014-Nov-01 01:58 UTC.
Position N 35°50' W 010°49'.

Length 146 m; draft 10.3 m.

Type: Ship (hazmat cat B). MMSI: 372566000.

Date/timePositionNaut miles runAvg speedWind from/ knotsBaromVisibWave heightAir tempDewpointWater temp
2014-Oct-29 20:17N 35°50' W 010°49'912.0
2014-Oct-29 19:33N 35°51' W 010°38'1212.1
2014-Oct-29 18:33N 35°52' W 010°24'3912.7
2014-Oct-29 15:29N 35°54' W 009°36'1213.3
2014-Oct-29 14:33N 35°55' W 009°21'1312.7
2014-Oct-29 13:33N 35°55' W 009°05'3112.7
2014-Oct-29 11:07N 35°57' W 008°27'14712.6
2014-Oct-28 23:29N 36°01' W 005°25'7 1.1
2014-Oct-28 17:32N 36°07' W 005°21'0 0.0
2014-Oct-28 16:20N 36°07' W 005°22'0 0.0
2014-Oct-28 14:22N 36°07' W 005°22'1 1.8
2014-Oct-28 13:33N 36°06' W 005°22'3 2.9
2014-Oct-28 12:33N 36°03' W 005°22'9 8.6
2014-Oct-28 11:33N 35°57' W 005°30'69 9.8
2014-Oct-28 04:32N 36°31' W 006°45'  
Track history (hours):
 
Tides and Currents Weather Stations Pressure Air Temp Water Temp Dewpoint Dewpoint Depression Visibility Wind Speed Wind Dir Waves Ship Positions

Fairchem Filly

Last reported at 2014-Oct-29 20:17 UTC. Time now 2014-Nov-01 01:58 UTC.
Position N 35°50' W 010°49'.

Length 146 m; draft 10.3 m.

Type: Ship (hazmat cat B). MMSI: 372566000.

Date/timePositionNaut miles runAvg speedWind from/ knotsBaromVisibWave heightAir tempDewpointWater temp
2014-Oct-29 20:17N 35°50' W 010°49'912.0
2014-Oct-29 19:33N 35°51' W 010°38'1212.1
2014-Oct-29 18:33N 35°52' W 010°24'3912.7
2014-Oct-29 15:29N 35°54' W 009°36'1213.3
2014-Oct-29 14:33N 35°55' W 009°21'1312.7
2014-Oct-29 13:33N 35°55' W 009°05'3112.7
2014-Oct-29 11:07N 35°57' W 008°27'14712.6
2014-Oct-28 23:29N 36°01' W 005°25'7 1.1
2014-Oct-28 17:32N 36°07' W 005°21'0 0.0
2014-Oct-28 16:20N 36°07' W 005°22'0 0.0
2014-Oct-28 14:22N 36°07' W 005°22'1 1.8
2014-Oct-28 13:33N 36°06' W 005°22'3 2.9
2014-Oct-28 12:33N 36°03' W 005°22'9 8.6
2014-Oct-28 11:33N 35°57' W 005°30'69 9.8
2014-Oct-28 04:32N 36°31' W 006°45'  

Dump ship's entire track history